sensor_id;sensor_type;location;lat;lon;timestamp;temperature;humidity
52731;DHT22;38624;53.242;6.974;2022-10-16T00:01:57;12.60;99.90
52731;DHT22;38624;53.242;6.974;2022-10-16T00:04:23;12.60;99.90
52731;DHT22;38624;53.242;6.974;2022-10-16T00:06:48;12.60;99.90
52731;DHT22;38624;53.242;6.974;2022-10-16T00:09:14;12.60;99.90
52731;DHT22;38624;53.242;6.974;2022-10-16T00:11:40;12.60;99.90
52731;DHT22;38624;53.242;6.974;2022-10-16T00:14:09;12.60;99.90
52731;DHT22;38624;53.242;6.974;2022-10-16T00:16:36;12.70;99.90
52731;DHT22;38624;53.242;6.974;2022-10-16T00:19:02;12.70;99.90
52731;DHT22;38624;53.242;6.974;2022-10-16T00:21:29;12.60;99.90
52731;DHT22;38624;53.242;6.974;2022-10-16T00:24:02;12.60;99.90
52731;DHT22;38624;53.242;6.974;2022-10-16T00:26:29;12.60;99.90
52731;DHT22;38624;53.242;6.974;2022-10-16T00:28:55;12.50;99.90
52731;DHT22;38624;53.242;6.974;2022-10-16T00:31:22;12.50;99.90
52731;DHT22;38624;53.242;6.974;2022-10-16T00:33:48;12.50;99.90
52731;DHT22;38624;53.242;6.974;2022-10-16T00:36:17;12.60;99.90
52731;DHT22;38624;53.242;6.974;2022-10-16T00:38:43;12.40;99.90
52731;DHT22;38624;53.242;6.974;2022-10-16T00:41:15;12.40;99.90
52731;DHT22;38624;53.242;6.974;2022-10-16T00:43:44;12.40;99.90
52731;DHT22;38624;53.242;6.974;2022-10-16T00:46:15;12.50;99.90
52731;DHT22;38624;53.242;6.974;2022-10-16T00:48:42;12.50;99.90
52731;DHT22;38624;53.242;6.974;2022-10-16T00:51:10;12.40;99.90
52731;DHT22;38624;53.242;6.974;2022-10-16T00:53:36;12.50;99.90
52731;DHT22;38624;53.242;6.974;2022-10-16T00:56:03;12.50;99.90
52731;DHT22;38624;53.242;6.974;2022-10-16T00:58:29;12.50;99.90
52731;DHT22;38624;53.242;6.974;2022-10-16T01:00:54;12.40;99.90
52731;DHT22;38624;53.242;6.974;2022-10-16T01:06:21;12.40;99.90
52731;DHT22;38624;53.242;6.974;2022-10-16T01:09:18;12.40;99.90
52731;DHT22;38624;53.242;6.974;2022-10-16T01:15:04;12.20;99.90
52731;DHT22;38624;53.242;6.974;2022-10-16T01:20:20;12.10;99.90
52731;DHT22;38624;53.242;6.974;2022-10-16T01:23:07;12.10;99.90
52731;DHT22;38624;53.242;6.974;2022-10-16T01:28:17;12.10;99.90
52731;DHT22;38624;53.242;6.974;2022-10-16T01:30:45;12.10;99.90
52731;DHT22;38624;53.242;6.974;2022-10-16T01:33:22;12.10;99.90
52731;DHT22;38624;53.242;6.974;2022-10-16T01:35:54;12.00;99.90
52731;DHT22;38624;53.242;6.974;2022-10-16T01:38:32;12.00;99.90
52731;DHT22;38624;53.242;6.974;2022-10-16T01:41:04;12.00;99.90
52731;DHT22;38624;53.242;6.974;2022-10-16T01:43:43;12.00;99.90
52731;DHT22;38624;53.242;6.974;2022-10-16T01:46:10;12.00;99.90
52731;DHT22;38624;53.242;6.974;2022-10-16T01:48:39;12.00;99.90
52731;DHT22;38624;53.242;6.974;2022-10-16T01:51:12;12.00;99.90
52731;DHT22;38624;53.242;6.974;2022-10-16T01:53:40;12.00;99.90
52731;DHT22;38624;53.242;6.974;2022-10-16T01:56:09;12.00;99.90
52731;DHT22;38624;53.242;6.974;2022-10-16T01:58:40;12.00;99.90
52731;DHT22;38624;53.242;6.974;2022-10-16T02:01:09;12.20;99.90
52731;DHT22;38624;53.242;6.974;2022-10-16T02:03:38;12.00;99.90
52731;DHT22;38624;53.242;6.974;2022-10-16T02:06:06;11.90;99.90
52731;DHT22;38624;53.242;6.974;2022-10-16T02:08:32;11.90;99.90
52731;DHT22;38624;53.242;6.974;2022-10-16T02:11:00;11.90;99.90
52731;DHT22;38624;53.242;6.974;2022-10-16T02:13:39;11.90;99.90
52731;DHT22;38624;53.242;6.974;2022-10-16T02:16:09;11.80;99.90
52731;DHT22;38624;53.242;6.974;2022-10-16T02:18:35;11.80;99.90
52731;DHT22;38624;53.242;6.974;2022-10-16T02:21:13;11.80;99.90
52731;DHT22;38624;53.242;6.974;2022-10-16T02:26:35;11.70;99.90
52731;DHT22;38624;53.242;6.974;2022-10-16T02:29:06;11.70;99.90
52731;DHT22;38624;53.242;6.974;2022-10-16T02:31:35;11.70;99.90
52731;DHT22;38624;53.242;6.974;2022-10-16T02:34:05;11.60;99.90
52731;DHT22;38624;53.242;6.974;2022-10-16T02:36:33;11.70;99.90
52731;DHT22;38624;53.242;6.974;2022-10-16T02:38:59;11.70;99.90
52731;DHT22;38624;53.242;6.974;2022-10-16T02:41:26;11.70;99.90
52731;DHT22;38624;53.242;6.974;2022-10-16T02:43:52;11.70;99.90
52731;DHT22;38624;53.242;6.974;2022-10-16T02:46:18;11.70;99.90
52731;DHT22;38624;53.242;6.974;2022-10-16T02:48:44;11.70;99.90
52731;DHT22;38624;53.242;6.974;2022-10-16T02:51:10;11.80;99.90
52731;DHT22;38624;53.242;6.974;2022-10-16T02:53:35;11.80;99.90
52731;DHT22;38624;53.242;6.974;2022-10-16T02:56:01;11.80;99.90
52731;DHT22;38624;53.242;6.974;2022-10-16T02:58:27;11.80;99.90
52731;DHT22;38624;53.242;6.974;2022-10-16T03:00:52;11.90;99.90
52731;DHT22;38624;53.242;6.974;2022-10-16T03:03:18;11.90;99.90
52731;DHT22;38624;53.242;6.974;2022-10-16T03:05:44;11.90;99.90
52731;DHT22;38624;53.242;6.974;2022-10-16T03:08:11;12.30;99.90
52731;DHT22;38624;53.242;6.974;2022-10-16T03:10:37;12.00;99.90
52731;DHT22;38624;53.242;6.974;2022-10-16T03:13:03;12.00;99.90
52731;DHT22;38624;53.242;6.974;2022-10-16T03:15:28;12.00;99.90
52731;DHT22;38624;53.242;6.974;2022-10-16T03:17:55;12.20;99.90
52731;DHT22;38624;53.242;6.974;2022-10-16T03:20:22;12.10;99.90
52731;DHT22;38624;53.242;6.974;2022-10-16T03:22:48;12.10;99.90
52731;DHT22;38624;53.242;6.974;2022-10-16T03:25:13;12.20;99.90
52731;DHT22;38624;53.242;6.974;2022-10-16T03:27:39;12.20;99.90
52731;DHT22;38624;53.242;6.974;2022-10-16T03:30:05;12.20;99.90
52731;DHT22;38624;53.242;6.974;2022-10-16T03:32:31;12.20;99.90
52731;DHT22;38624;53.242;6.974;2022-10-16T03:34:57;12.30;99.90
52731;DHT22;38624;53.242;6.974;2022-10-16T03:37:22;12.20;99.90
52731;DHT22;38624;53.242;6.974;2022-10-16T03:39:48;12.20;99.90
52731;DHT22;38624;53.242;6.974;2022-10-16T03:42:14;12.30;99.90
52731;DHT22;38624;53.242;6.974;2022-10-16T03:44:39;12.30;99.90
52731;DHT22;38624;53.242;6.974;2022-10-16T03:47:05;12.30;99.90
52731;DHT22;38624;53.242;6.974;2022-10-16T03:49:31;12.30;99.90
52731;DHT22;38624;53.242;6.974;2022-10-16T03:51:56;12.20;99.90
52731;DHT22;38624;53.242;6.974;2022-10-16T03:54:22;12.20;99.90
52731;DHT22;38624;53.242;6.974;2022-10-16T03:56:48;12.20;99.90
52731;DHT22;38624;53.242;6.974;2022-10-16T03:59:13;12.20;99.90
52731;DHT22;38624;53.242;6.974;2022-10-16T04:01:39;12.20;99.90
52731;DHT22;38624;53.242;6.974;2022-10-16T04:04:05;12.20;99.90
52731;DHT22;38624;53.242;6.974;2022-10-16T04:06:31;12.20;99.90
52731;DHT22;38624;53.242;6.974;2022-10-16T04:08:56;12.10;99.90
52731;DHT22;38624;53.242;6.974;2022-10-16T04:11:22;12.10;99.90
52731;DHT22;38624;53.242;6.974;2022-10-16T04:13:48;12.10;99.90
52731;DHT22;38624;53.242;6.974;2022-10-16T04:16:14;12.00;99.90
52731;DHT22;38624;53.242;6.974;2022-10-16T04:18:39;12.00;99.90
52731;DHT22;38624;53.242;6.974;2022-10-16T04:21:06;12.00;99.90
52731;DHT22;38624;53.242;6.974;2022-10-16T04:23:32;11.90;99.90
52731;DHT22;38624;53.242;6.974;2022-10-16T04:25:59;11.90;99.90
52731;DHT22;38624;53.242;6.974;2022-10-16T04:28:24;12.00;99.90
52731;DHT22;38624;53.242;6.974;2022-10-16T04:30:50;11.80;99.90
52731;DHT22;38624;53.242;6.974;2022-10-16T04:33:16;11.80;99.90
52731;DHT22;38624;53.242;6.974;2022-10-16T04:35:41;11.80;99.90
52731;DHT22;38624;53.242;6.974;2022-10-16T04:38:07;11.70;99.90
52731;DHT22;38624;53.242;6.974;2022-10-16T04:40:33;11.90;99.90
52731;DHT22;38624;53.242;6.974;2022-10-16T04:43:04;11.80;99.90
52731;DHT22;38624;53.242;6.974;2022-10-16T04:45:30;11.80;99.90
52731;DHT22;38624;53.242;6.974;2022-10-16T04:47:59;11.90;99.90
52731;DHT22;38624;53.242;6.974;2022-10-16T04:50:25;11.90;99.90
52731;DHT22;38624;53.242;6.974;2022-10-16T04:52:51;12.00;99.90
52731;DHT22;38624;53.242;6.974;2022-10-16T04:55:17;12.10;99.90
52731;DHT22;38624;53.242;6.974;2022-10-16T04:57:43;12.00;99.90
52731;DHT22;38624;53.242;6.974;2022-10-16T05:00:09;12.10;99.90
52731;DHT22;38624;53.242;6.974;2022-10-16T05:02:35;12.10;99.90
52731;DHT22;38624;53.242;6.974;2022-10-16T05:05:00;12.10;99.90
52731;DHT22;38624;53.242;6.974;2022-10-16T05:07:26;12.20;99.90
52731;DHT22;38624;53.242;6.974;2022-10-16T05:09:52;12.30;99.90
52731;DHT22;38624;53.242;6.974;2022-10-16T05:12:18;12.30;99.90
52731;DHT22;38624;53.242;6.974;2022-10-16T05:14:43;12.40;99.90
52731;DHT22;38624;53.242;6.974;2022-10-16T05:17:09;12.40;99.90
52731;DHT22;38624;53.242;6.974;2022-10-16T05:19:34;12.50;99.90
52731;DHT22;38624;53.242;6.974;2022-10-16T05:22:00;12.50;99.90
52731;DHT22;38624;53.242;6.974;2022-10-16T05:24:26;12.50;99.90
52731;DHT22;38624;53.242;6.974;2022-10-16T05:26:52;12.60;99.90
52731;DHT22;38624;53.242;6.974;2022-10-16T05:29:18;12.50;99.90
52731;DHT22;38624;53.242;6.974;2022-10-16T05:31:44;12.50;99.90
52731;DHT22;38624;53.242;6.974;2022-10-16T05:34:10;12.50;99.90
52731;DHT22;38624;53.242;6.974;2022-10-16T05:36:35;12.50;99.90
52731;DHT22;38624;53.242;6.974;2022-10-16T05:39:02;12.60;99.90
52731;DHT22;38624;53.242;6.974;2022-10-16T05:41:27;12.50;99.90
52731;DHT22;38624;53.242;6.974;2022-10-16T05:43:53;12.50;99.90
52731;DHT22;38624;53.242;6.974;2022-10-16T05:46:19;12.50;99.90
52731;DHT22;38624;53.242;6.974;2022-10-16T05:48:45;12.50;99.90
52731;DHT22;38624;53.242;6.974;2022-10-16T05:51:12;12.50;99.90
52731;DHT22;38624;53.242;6.974;2022-10-16T05:53:39;12.50;99.90
52731;DHT22;38624;53.242;6.974;2022-10-16T05:56:06;12.50;99.90
52731;DHT22;38624;53.242;6.974;2022-10-16T05:58:34;12.50;99.90
52731;DHT22;38624;53.242;6.974;2022-10-16T06:01:06;12.50;99.90
52731;DHT22;38624;53.242;6.974;2022-10-16T06:03:33;12.50;99.90
52731;DHT22;38624;53.242;6.974;2022-10-16T06:05:59;12.50;99.90
52731;DHT22;38624;53.242;6.974;2022-10-16T06:08:32;12.50;99.90
52731;DHT22;38624;53.242;6.974;2022-10-16T06:11:05;12.50;99.90
52731;DHT22;38624;53.242;6.974;2022-10-16T06:13:31;12.50;99.90
52731;DHT22;38624;53.242;6.974;2022-10-16T06:15:58;12.50;99.90
52731;DHT22;38624;53.242;6.974;2022-10-16T06:18:25;12.50;99.90
52731;DHT22;38624;53.242;6.974;2022-10-16T06:20:51;12.50;99.90
52731;DHT22;38624;53.242;6.974;2022-10-16T06:23:17;12.50;99.90
52731;DHT22;38624;53.242;6.974;2022-10-16T06:25:42;12.40;99.90
52731;DHT22;38624;53.242;6.974;2022-10-16T06:28:08;12.50;99.90
52731;DHT22;38624;53.242;6.974;2022-10-16T06:30:34;12.50;99.90
52731;DHT22;38624;53.242;6.974;2022-10-16T06:32:59;12.40;99.90
52731;DHT22;38624;53.242;6.974;2022-10-16T06:35:25;12.60;99.90
52731;DHT22;38624;53.242;6.974;2022-10-16T06:37:52;12.60;99.90
52731;DHT22;38624;53.242;6.974;2022-10-16T06:40:18;12.60;99.90
52731;DHT22;38624;53.242;6.974;2022-10-16T06:42:44;12.70;99.90
52731;DHT22;38624;53.242;6.974;2022-10-16T06:45:10;12.70;99.90
52731;DHT22;38624;53.242;6.974;2022-10-16T06:47:36;12.70;99.90
52731;DHT22;38624;53.242;6.974;2022-10-16T06:50:02;12.70;99.90
52731;DHT22;38624;53.242;6.974;2022-10-16T06:52:29;13.30;99.90
52731;DHT22;38624;53.242;6.974;2022-10-16T06:54:54;12.70;99.90
52731;DHT22;38624;53.242;6.974;2022-10-16T06:57:20;12.80;99.90
52731;DHT22;38624;53.242;6.974;2022-10-16T06:59:46;12.80;99.90
52731;DHT22;38624;53.242;6.974;2022-10-16T07:02:11;12.80;99.90
52731;DHT22;38624;53.242;6.974;2022-10-16T07:04:37;13.00;99.90
52731;DHT22;38624;53.242;6.974;2022-10-16T07:07:03;13.00;99.90
52731;DHT22;38624;53.242;6.974;2022-10-16T07:09:28;13.10;99.90
52731;DHT22;38624;53.242;6.974;2022-10-16T07:11:54;13.10;99.90
52731;DHT22;38624;53.242;6.974;2022-10-16T07:14:21;13.20;99.90
52731;DHT22;38624;53.242;6.974;2022-10-16T07:16:47;13.30;99.90
52731;DHT22;38624;53.242;6.974;2022-10-16T07:19:14;13.30;99.90
52731;DHT22;38624;53.242;6.974;2022-10-16T07:21:43;13.40;99.90
52731;DHT22;38624;53.242;6.974;2022-10-16T07:24:14;13.40;99.90
52731;DHT22;38624;53.242;6.974;2022-10-16T07:26:43;13.50;99.90
52731;DHT22;38624;53.242;6.974;2022-10-16T07:29:17;13.40;99.90
52731;DHT22;38624;53.242;6.974;2022-10-16T07:31:44;13.40;99.90
52731;DHT22;38624;53.242;6.974;2022-10-16T07:34:11;13.40;99.90
52731;DHT22;38624;53.242;6.974;2022-10-16T07:36:39;13.50;99.90
52731;DHT22;38624;53.242;6.974;2022-10-16T07:39:04;13.50;99.90
52731;DHT22;38624;53.242;6.974;2022-10-16T07:41:30;13.50;99.90
52731;DHT22;38624;53.242;6.974;2022-10-16T07:43:58;13.70;99.90
52731;DHT22;38624;53.242;6.974;2022-10-16T07:46:28;13.80;99.90
52731;DHT22;38624;53.242;6.974;2022-10-16T07:48:54;13.70;99.90
52731;DHT22;38624;53.242;6.974;2022-10-16T07:51:22;13.70;99.90
52731;DHT22;38624;53.242;6.974;2022-10-16T07:53:48;13.70;99.90
52731;DHT22;38624;53.242;6.974;2022-10-16T07:56:14;13.70;99.90
52731;DHT22;38624;53.242;6.974;2022-10-16T07:58:40;13.80;99.90
52731;DHT22;38624;53.242;6.974;2022-10-16T08:01:12;13.70;99.90
52731;DHT22;38624;53.242;6.974;2022-10-16T08:03:45;13.70;99.90
52731;DHT22;38624;53.242;6.974;2022-10-16T08:06:11;13.70;99.90
52731;DHT22;38624;53.242;6.974;2022-10-16T08:08:36;13.70;99.90
52731;DHT22;38624;53.242;6.974;2022-10-16T08:11:02;13.80;99.90
52731;DHT22;38624;53.242;6.974;2022-10-16T08:13:31;13.80;99.90
52731;DHT22;38624;53.242;6.974;2022-10-16T08:15:57;13.80;99.90
52731;DHT22;38624;53.242;6.974;2022-10-16T08:18:22;13.80;99.90
52731;DHT22;38624;53.242;6.974;2022-10-16T08:20:55;13.80;99.90
52731;DHT22;38624;53.242;6.974;2022-10-16T08:23:22;13.80;99.90
52731;DHT22;38624;53.242;6.974;2022-10-16T08:25:48;13.80;99.90
52731;DHT22;38624;53.242;6.974;2022-10-16T08:28:13;13.80;99.90
52731;DHT22;38624;53.242;6.974;2022-10-16T08:30:39;13.90;99.90
52731;DHT22;38624;53.242;6.974;2022-10-16T08:33:05;14.00;99.90
52731;DHT22;38624;53.242;6.974;2022-10-16T08:35:31;14.10;99.90
52731;DHT22;38624;53.242;6.974;2022-10-16T08:37:57;14.10;99.90
52731;DHT22;38624;53.242;6.974;2022-10-16T08:40:28;14.20;99.90
52731;DHT22;38624;53.242;6.974;2022-10-16T08:48:47;14.40;99.90
52731;DHT22;38624;53.242;6.974;2022-10-16T08:51:35;14.40;99.90
52731;DHT22;38624;53.242;6.974;2022-10-16T08:54:04;14.40;99.90
52731;DHT22;38624;53.242;6.974;2022-10-16T08:56:31;14.30;99.90
52731;DHT22;38624;53.242;6.974;2022-10-16T08:58:58;14.30;99.90
52731;DHT22;38624;53.242;6.974;2022-10-16T09:01:44;14.40;99.90
52731;DHT22;38624;53.242;6.974;2022-10-16T09:12:46;14.40;99.90
52731;DHT22;38624;53.242;6.974;2022-10-16T09:15:34;14.50;99.90
52731;DHT22;38624;53.242;6.974;2022-10-16T09:18:27;14.70;99.90
52731;DHT22;38624;53.242;6.974;2022-10-16T09:21:15;14.90;99.90
52731;DHT22;38624;53.242;6.974;2022-10-16T09:23:43;15.00;99.90
52731;DHT22;38624;53.242;6.974;2022-10-16T09:26:14;15.10;99.90
52731;DHT22;38624;53.242;6.974;2022-10-16T09:28:41;15.20;99.90
52731;DHT22;38624;53.242;6.974;2022-10-16T09:31:18;15.20;99.90
52731;DHT22;38624;53.242;6.974;2022-10-16T09:33:45;15.30;99.90
52731;DHT22;38624;53.242;6.974;2022-10-16T09:36:13;15.30;99.90
52731;DHT22;38624;53.242;6.974;2022-10-16T09:38:39;15.40;99.90
52731;DHT22;38624;53.242;6.974;2022-10-16T09:41:20;15.30;99.90
52731;DHT22;38624;53.242;6.974;2022-10-16T09:43:55;15.40;99.90
52731;DHT22;38624;53.242;6.974;2022-10-16T09:51:41;15.50;99.90
52731;DHT22;38624;53.242;6.974;2022-10-16T09:54:14;15.50;99.90
52731;DHT22;38624;53.242;6.974;2022-10-16T09:56:40;15.60;99.90
52731;DHT22;38624;53.242;6.974;2022-10-16T09:59:16;15.50;99.90
52731;DHT22;38624;53.242;6.974;2022-10-16T10:01:55;15.60;99.90
52731;DHT22;38624;53.242;6.974;2022-10-16T10:04:23;15.60;99.90
52731;DHT22;38624;53.242;6.974;2022-10-16T10:06:54;15.70;99.90
52731;DHT22;38624;53.242;6.974;2022-10-16T10:09:26;15.80;99.90
52731;DHT22;38624;53.242;6.974;2022-10-16T10:12:14;16.00;99.90
52731;DHT22;38624;53.242;6.974;2022-10-16T10:14:47;16.00;99.90
52731;DHT22;38624;53.242;6.974;2022-10-16T10:17:22;16.10;99.90
52731;DHT22;38624;53.242;6.974;2022-10-16T10:20:00;16.20;99.90
52731;DHT22;38624;53.242;6.974;2022-10-16T10:36:27;16.20;99.90
52731;DHT22;38624;53.242;6.974;2022-10-16T10:39:14;16.40;99.90
52731;DHT22;38624;53.242;6.974;2022-10-16T10:47:38;16.70;99.90
52731;DHT22;38624;53.242;6.974;2022-10-16T10:55:37;16.50;99.90
52731;DHT22;38624;53.242;6.974;2022-10-16T10:58:24;16.70;99.90
52731;DHT22;38624;53.242;6.974;2022-10-16T11:01:09;16.70;99.90
52731;DHT22;38624;53.242;6.974;2022-10-16T11:06:38;16.70;99.90
52731;DHT22;38624;53.242;6.974;2022-10-16T11:09:18;16.70;99.90
52731;DHT22;38624;53.242;6.974;2022-10-16T11:17:22;16.60;99.90
52731;DHT22;38624;53.242;6.974;2022-10-16T11:22:54;16.60;99.90
52731;DHT22;38624;53.242;6.974;2022-10-16T11:25:28;16.50;99.90
52731;DHT22;38624;53.242;6.974;2022-10-16T11:30:23;16.50;99.90
52731;DHT22;38624;53.242;6.974;2022-10-16T11:38:39;16.40;99.90
52731;DHT22;38624;53.242;6.974;2022-10-16T11:41:27;16.40;99.90
52731;DHT22;38624;53.242;6.974;2022-10-16T11:46:34;16.40;99.90
52731;DHT22;38624;53.242;6.974;2022-10-16T11:49:25;16.40;99.90
52731;DHT22;38624;53.242;6.974;2022-10-16T11:54:56;17.00;99.90
52731;DHT22;38624;53.242;6.974;2022-10-16T11:57:29;17.40;99.90
52731;DHT22;38624;53.242;6.974;2022-10-16T12:06:42;21.20;99.90
52731;DHT22;38624;53.242;6.974;2022-10-16T12:08:37;22.10;99.90
52731;DHT22;38624;53.242;6.974;2022-10-16T12:11:09;23.10;95.90
52731;DHT22;38624;53.242;6.974;2022-10-16T12:13:37;23.60;93.70
52731;DHT22;38624;53.242;6.974;2022-10-16T12:16:23;24.40;92.30
52731;DHT22;38624;53.242;6.974;2022-10-16T12:18:49;24.60;91.20
52731;DHT22;38624;53.242;6.974;2022-10-16T12:21:31;23.90;90.30
52731;DHT22;38624;53.242;6.974;2022-10-16T12:24:02;23.10;89.60
52731;DHT22;38624;53.242;6.974;2022-10-16T12:26:36;22.30;91.00
52731;DHT22;38624;53.242;6.974;2022-10-16T12:29:24;21.70;92.30
52731;DHT22;38624;53.242;6.974;2022-10-16T12:31:52;21.20;93.40
52731;DHT22;38624;53.242;6.974;2022-10-16T12:34:50;21.10;95.20
52731;DHT22;38624;53.242;6.974;2022-10-16T12:37:21;20.90;94.20
52731;DHT22;38624;53.242;6.974;2022-10-16T12:39:49;20.50;97.10
52731;DHT22;38624;53.242;6.974;2022-10-16T12:44:47;19.80;98.70
52731;DHT22;38624;53.242;6.974;2022-10-16T12:47:49;19.30;99.90
52731;DHT22;38624;53.242;6.974;2022-10-16T12:50:32;18.90;99.90
52731;DHT22;38624;53.242;6.974;2022-10-16T12:52:59;18.70;99.90
52731;DHT22;38624;53.242;6.974;2022-10-16T12:55:26;18.90;99.90
52731;DHT22;38624;53.242;6.974;2022-10-16T12:58:31;19.30;99.90
52731;DHT22;38624;53.242;6.974;2022-10-16T13:00:56;19.70;99.90
52731;DHT22;38624;53.242;6.974;2022-10-16T13:22:32;23.40;83.80
52731;DHT22;38624;53.242;6.974;2022-10-16T13:28:08;21.90;85.80
52731;DHT22;38624;53.242;6.974;2022-10-16T13:30:41;21.30;84.70
52731;DHT22;38624;53.242;6.974;2022-10-16T13:33:17;20.80;88.00
52731;DHT22;38624;53.242;6.974;2022-10-16T13:35:51;20.50;89.40
52731;DHT22;38624;53.242;6.974;2022-10-16T13:38:52;20.20;91.00
52731;DHT22;38624;53.242;6.974;2022-10-16T13:41:18;20.00;92.10
52731;DHT22;38624;53.242;6.974;2022-10-16T13:43:54;20.00;92.40
52731;DHT22;38624;53.242;6.974;2022-10-16T13:46:23;20.00;93.10
52731;DHT22;38624;53.242;6.974;2022-10-16T13:49:04;19.80;94.20
52731;DHT22;38624;53.242;6.974;2022-10-16T13:51:32;19.70;94.80
52731;DHT22;38624;53.242;6.974;2022-10-16T13:53:58;19.70;93.30
52731;DHT22;38624;53.242;6.974;2022-10-16T13:56:27;19.50;93.70
52731;DHT22;38624;53.242;6.974;2022-10-16T13:59:24;19.30;94.90
52731;DHT22;38624;53.242;6.974;2022-10-16T14:01:52;19.00;95.70
52731;DHT22;38624;53.242;6.974;2022-10-16T14:04:19;19.10;93.90
52731;DHT22;38624;53.242;6.974;2022-10-16T14:06:48;19.00;93.60
52731;DHT22;38624;53.242;6.974;2022-10-16T14:09:26;18.80;93.90
52731;DHT22;38624;53.242;6.974;2022-10-16T14:12:07;18.70;95.80
52731;DHT22;38624;53.242;6.974;2022-10-16T14:14:45;18.50;97.00
52731;DHT22;38624;53.242;6.974;2022-10-16T14:17:31;18.40;98.70
52731;DHT22;38624;53.242;6.974;2022-10-16T14:20:00;18.30;99.90
52731;DHT22;38624;53.242;6.974;2022-10-16T14:22:30;18.30;98.90
52731;DHT22;38624;53.242;6.974;2022-10-16T14:24:58;18.20;99.90
52731;DHT22;38624;53.242;6.974;2022-10-16T14:27:35;18.10;99.90
52731;DHT22;38624;53.242;6.974;2022-10-16T14:32:34;17.90;99.90
52731;DHT22;38624;53.242;6.974;2022-10-16T14:34:59;17.70;99.90
52731;DHT22;38624;53.242;6.974;2022-10-16T14:37:29;17.50;99.90
52731;DHT22;38624;53.242;6.974;2022-10-16T14:39:56;17.50;99.90
52731;DHT22;38624;53.242;6.974;2022-10-16T14:42:24;17.40;99.90
52731;DHT22;38624;53.242;6.974;2022-10-16T14:44:51;17.40;99.90
52731;DHT22;38624;53.242;6.974;2022-10-16T14:47:25;17.30;99.90
52731;DHT22;38624;53.242;6.974;2022-10-16T14:49:54;17.30;99.90
52731;DHT22;38624;53.242;6.974;2022-10-16T14:52:23;17.30;99.90
52731;DHT22;38624;53.242;6.974;2022-10-16T14:54:49;17.20;99.90
52731;DHT22;38624;53.242;6.974;2022-10-16T14:57:26;17.00;99.90
52731;DHT22;38624;53.242;6.974;2022-10-16T14:59:53;16.90;99.90
52731;DHT22;38624;53.242;6.974;2022-10-16T15:02:30;16.80;99.90
52731;DHT22;38624;53.242;6.974;2022-10-16T15:04:57;16.70;99.90
52731;DHT22;38624;53.242;6.974;2022-10-16T15:07:23;16.70;99.90
52731;DHT22;38624;53.242;6.974;2022-10-16T15:09:48;16.70;99.90
52731;DHT22;38624;53.242;6.974;2022-10-16T15:12:14;16.60;99.90
52731;DHT22;38624;53.242;6.974;2022-10-16T15:14:40;16.50;99.90
52731;DHT22;38624;53.242;6.974;2022-10-16T15:17:07;16.50;99.90
52731;DHT22;38624;53.242;6.974;2022-10-16T15:19:33;16.50;99.90
52731;DHT22;38624;53.242;6.974;2022-10-16T15:21:59;16.40;99.90
52731;DHT22;38624;53.242;6.974;2022-10-16T15:24:25;16.40;99.90
52731;DHT22;38624;53.242;6.974;2022-10-16T15:26:51;16.30;99.90
52731;DHT22;38624;53.242;6.974;2022-10-16T15:29:16;16.30;99.90
52731;DHT22;38624;53.242;6.974;2022-10-16T15:31:42;16.30;99.90
52731;DHT22;38624;53.242;6.974;2022-10-16T15:34:09;16.20;99.90
52731;DHT22;38624;53.242;6.974;2022-10-16T15:36:37;16.20;99.90
52731;DHT22;38624;53.242;6.974;2022-10-16T15:39:04;16.10;99.90
52731;DHT22;38624;53.242;6.974;2022-10-16T15:41:31;16.10;99.90
52731;DHT22;38624;53.242;6.974;2022-10-16T15:43:56;16.00;99.90
52731;DHT22;38624;53.242;6.974;2022-10-16T15:46:23;15.90;99.90
52731;DHT22;38624;53.242;6.974;2022-10-16T15:48:50;15.90;99.90
52731;DHT22;38624;53.242;6.974;2022-10-16T15:51:17;15.80;99.90
52731;DHT22;38624;53.242;6.974;2022-10-16T15:53:43;15.70;99.90
52731;DHT22;38624;53.242;6.974;2022-10-16T15:56:12;15.60;99.90
52731;DHT22;38624;53.242;6.974;2022-10-16T15:58:38;15.60;99.90
52731;DHT22;38624;53.242;6.974;2022-10-16T16:01:04;15.40;99.90
52731;DHT22;38624;53.242;6.974;2022-10-16T16:03:31;15.40;99.90
52731;DHT22;38624;53.242;6.974;2022-10-16T16:05:57;15.30;99.90
52731;DHT22;38624;53.242;6.974;2022-10-16T16:08:23;15.20;99.90
52731;DHT22;38624;53.242;6.974;2022-10-16T16:11:06;15.10;99.90
52731;DHT22;38624;53.242;6.974;2022-10-16T16:13:32;15.10;99.90
52731;DHT22;38624;53.242;6.974;2022-10-16T16:15:59;15.00;99.90
52731;DHT22;38624;53.242;6.974;2022-10-16T16:18:25;14.90;99.90
52731;DHT22;38624;53.242;6.974;2022-10-16T16:20:51;14.80;99.90
52731;DHT22;38624;53.242;6.974;2022-10-16T16:23:17;14.70;99.90
52731;DHT22;38624;53.242;6.974;2022-10-16T16:25:44;14.60;99.90
52731;DHT22;38624;53.242;6.974;2022-10-16T16:28:10;14.50;99.90
52731;DHT22;38624;53.242;6.974;2022-10-16T16:30:40;14.40;99.90
52731;DHT22;38624;53.242;6.974;2022-10-16T16:33:06;14.30;99.90
52731;DHT22;38624;53.242;6.974;2022-10-16T16:35:32;14.20;99.90
52731;DHT22;38624;53.242;6.974;2022-10-16T16:37:57;14.10;99.90
52731;DHT22;38624;53.242;6.974;2022-10-16T16:40:23;14.10;99.90
52731;DHT22;38624;53.242;6.974;2022-10-16T16:42:49;14.00;99.90
52731;DHT22;38624;53.242;6.974;2022-10-16T16:45:14;13.90;99.90
52731;DHT22;38624;53.242;6.974;2022-10-16T16:47:40;13.90;99.90
52731;DHT22;38624;53.242;6.974;2022-10-16T16:50:06;13.80;99.90
52731;DHT22;38624;53.242;6.974;2022-10-16T16:52:33;13.80;99.90
52731;DHT22;38624;53.242;6.974;2022-10-16T16:54:59;13.70;99.90
52731;DHT22;38624;53.242;6.974;2022-10-16T16:57:25;13.60;99.90
52731;DHT22;38624;53.242;6.974;2022-10-16T16:59:50;13.60;99.90
52731;DHT22;38624;53.242;6.974;2022-10-16T17:02:17;13.50;99.90
52731;DHT22;38624;53.242;6.974;2022-10-16T17:04:42;13.50;99.90
52731;DHT22;38624;53.242;6.974;2022-10-16T17:07:08;13.40;99.90
52731;DHT22;38624;53.242;6.974;2022-10-16T17:09:34;13.40;99.90
52731;DHT22;38624;53.242;6.974;2022-10-16T17:11:59;13.40;99.90
52731;DHT22;38624;53.242;6.974;2022-10-16T17:14:25;13.30;99.90
52731;DHT22;38624;53.242;6.974;2022-10-16T17:16:52;13.30;99.90
52731;DHT22;38624;53.242;6.974;2022-10-16T17:19:18;13.20;99.90
52731;DHT22;38624;53.242;6.974;2022-10-16T17:21:45;13.20;99.90
52731;DHT22;38624;53.242;6.974;2022-10-16T17:24:12;13.10;99.90
52731;DHT22;38624;53.242;6.974;2022-10-16T17:26:38;13.00;99.90
52731;DHT22;38624;53.242;6.974;2022-10-16T17:29:06;13.00;99.90
52731;DHT22;38624;53.242;6.974;2022-10-16T17:31:34;12.90;99.90
52731;DHT22;38624;53.242;6.974;2022-10-16T17:34:03;12.80;99.90
52731;DHT22;38624;53.242;6.974;2022-10-16T17:36:31;12.80;99.90
52731;DHT22;38624;53.242;6.974;2022-10-16T17:38:59;12.70;99.90
52731;DHT22;38624;53.242;6.974;2022-10-16T17:41:26;12.70;99.90